sensor_id;sensor_type;location;lat;lon;timestamp;P1;durP1;ratioP1;P2;durP2;ratioP2
27899;SDS011;15243;50.726;7.080;2023-05-10T00:00:41;0.70;;;0.70;;
27899;SDS011;15243;50.726;7.080;2023-05-10T00:03:08;2.90;;;1.30;;
27899;SDS011;15243;50.726;7.080;2023-05-10T00:05:35;1.17;;;0.70;;
27899;SDS011;15243;50.726;7.080;2023-05-10T00:08:02;1.20;;;0.93;;
27899;SDS011;15243;50.726;7.080;2023-05-10T00:10:29;1.20;;;1.00;;
27899;SDS011;15243;50.726;7.080;2023-05-10T00:12:56;1.02;;;0.80;;
27899;SDS011;15243;50.726;7.080;2023-05-10T00:15:23;2.00;;;0.82;;
27899;SDS011;15243;50.726;7.080;2023-05-10T00:17:50;5.57;;;0.90;;
27899;SDS011;15243;50.726;7.080;2023-05-10T00:20:18;3.42;;;0.82;;
27899;SDS011;15243;50.726;7.080;2023-05-10T00:22:45;2.65;;;1.13;;
27899;SDS011;15243;50.726;7.080;2023-05-10T00:25:12;1.20;;;0.88;;
27899;SDS011;15243;50.726;7.080;2023-05-10T00:27:39;1.35;;;1.13;;
27899;SDS011;15243;50.726;7.080;2023-05-10T00:30:06;1.20;;;0.90;;
27899;SDS011;15243;50.726;7.080;2023-05-10T00:32:33;2.40;;;1.20;;
27899;SDS011;15243;50.726;7.080;2023-05-10T00:35:00;1.40;;;0.90;;
27899;SDS011;15243;50.726;7.080;2023-05-10T00:37:27;1.67;;;1.00;;
27899;SDS011;15243;50.726;7.080;2023-05-10T00:39:54;2.35;;;1.27;;
27899;SDS011;15243;50.726;7.080;2023-05-10T00:42:21;2.00;;;1.42;;
27899;SDS011;15243;50.726;7.080;2023-05-10T00:44:48;1.17;;;1.00;;
27899;SDS011;15243;50.726;7.080;2023-05-10T00:47:16;10.02;;;1.10;;
27899;SDS011;15243;50.726;7.080;2023-05-10T00:49:43;2.35;;;1.20;;
27899;SDS011;15243;50.726;7.080;2023-05-10T00:52:11;1.23;;;1.13;;
27899;SDS011;15243;50.726;7.080;2023-05-10T00:54:39;2.40;;;1.17;;
27899;SDS011;15243;50.726;7.080;2023-05-10T00:57:06;2.30;;;1.10;;
27899;SDS011;15243;50.726;7.080;2023-05-10T00:59:33;3.08;;;1.10;;
27899;SDS011;15243;50.726;7.080;2023-05-10T01:02:01;3.67;;;1.25;;
27899;SDS011;15243;50.726;7.080;2023-05-10T01:04:28;2.95;;;1.10;;
27899;SDS011;15243;50.726;7.080;2023-05-10T01:06:55;8.68;;;1.38;;
27899;SDS011;15243;50.726;7.080;2023-05-10T01:09:25;1.13;;;0.90;;
27899;SDS011;15243;50.726;7.080;2023-05-10T01:11:52;2.13;;;1.00;;
27899;SDS011;15243;50.726;7.080;2023-05-10T01:14:20;1.05;;;0.93;;
27899;SDS011;15243;50.726;7.080;2023-05-10T01:16:48;3.13;;;0.90;;
27899;SDS011;15243;50.726;7.080;2023-05-10T01:19:23;2.78;;;1.00;;
27899;SDS011;15243;50.726;7.080;2023-05-10T01:43:53;1.95;;;1.20;;
27899;SDS011;15243;50.726;7.080;2023-05-10T01:46:24;4.13;;;1.10;;
27899;SDS011;15243;50.726;7.080;2023-05-10T01:48:58;1.30;;;1.10;;
27899;SDS011;15243;50.726;7.080;2023-05-10T01:51:29;1.98;;;1.38;;
27899;SDS011;15243;50.726;7.080;2023-05-10T01:54:02;1.60;;;1.30;;
27899;SDS011;15243;50.726;7.080;2023-05-10T01:56:32;2.10;;;1.48;;
27899;SDS011;15243;50.726;7.080;2023-05-10T01:59:01;1.50;;;1.30;;
27899;SDS011;15243;50.726;7.080;2023-05-10T02:01:33;2.77;;;1.60;;
27899;SDS011;15243;50.726;7.080;2023-05-10T02:04:01;3.13;;;1.48;;
27899;SDS011;15243;50.726;7.080;2023-05-10T02:06:31;2.28;;;1.20;;
27899;SDS011;15243;50.726;7.080;2023-05-10T02:09:00;3.35;;;1.40;;
27899;SDS011;15243;50.726;7.080;2023-05-10T02:11:28;4.13;;;1.83;;
27899;SDS011;15243;50.726;7.080;2023-05-10T02:13:57;2.03;;;1.23;;
27899;SDS011;15243;50.726;7.080;2023-05-10T02:16:26;2.10;;;1.38;;
27899;SDS011;15243;50.726;7.080;2023-05-10T02:18:53;1.70;;;1.27;;
27899;SDS011;15243;50.726;7.080;2023-05-10T02:21:22;1.83;;;1.30;;
27899;SDS011;15243;50.726;7.080;2023-05-10T02:23:50;1.80;;;1.20;;
27899;SDS011;15243;50.726;7.080;2023-05-10T02:26:18;2.08;;;1.30;;
27899;SDS011;15243;50.726;7.080;2023-05-10T02:28:49;2.28;;;1.45;;
27899;SDS011;15243;50.726;7.080;2023-05-10T02:31:17;1.73;;;1.50;;
27899;SDS011;15243;50.726;7.080;2023-05-10T02:33:45;2.45;;;1.58;;
27899;SDS011;15243;50.726;7.080;2023-05-10T02:36:13;2.33;;;1.60;;
27899;SDS011;15243;50.726;7.080;2023-05-10T02:38:41;2.58;;;1.80;;
27899;SDS011;15243;50.726;7.080;2023-05-10T02:41:09;1.73;;;1.48;;
27899;SDS011;15243;50.726;7.080;2023-05-10T02:43:37;1.92;;;1.80;;
27899;SDS011;15243;50.726;7.080;2023-05-10T02:46:06;2.60;;;1.67;;
27899;SDS011;15243;50.726;7.080;2023-05-10T02:48:33;2.50;;;1.70;;
27899;SDS011;15243;50.726;7.080;2023-05-10T02:51:02;3.28;;;1.60;;
27899;SDS011;15243;50.726;7.080;2023-05-10T02:53:34;3.00;;;1.42;;
27899;SDS011;15243;50.726;7.080;2023-05-10T02:56:04;2.28;;;1.60;;
27899;SDS011;15243;50.726;7.080;2023-05-10T02:58:38;4.95;;;1.65;;
27899;SDS011;15243;50.726;7.080;2023-05-10T03:01:05;4.72;;;1.73;;
27899;SDS011;15243;50.726;7.080;2023-05-10T03:03:34;5.57;;;1.80;;
27899;SDS011;15243;50.726;7.080;2023-05-10T03:06:01;5.22;;;2.10;;
27899;SDS011;15243;50.726;7.080;2023-05-10T03:08:28;3.60;;;1.77;;
27899;SDS011;15243;50.726;7.080;2023-05-10T03:16:27;5.68;;;3.17;;
27899;SDS011;15243;50.726;7.080;2023-05-10T03:21:29;2.95;;;2.50;;
27899;SDS011;15243;50.726;7.080;2023-05-10T03:23:59;5.28;;;2.90;;
27899;SDS011;15243;50.726;7.080;2023-05-10T03:26:34;4.18;;;2.80;;
27899;SDS011;15243;50.726;7.080;2023-05-10T03:29:04;4.30;;;3.58;;
27899;SDS011;15243;50.726;7.080;2023-05-10T03:31:32;4.82;;;3.40;;
27899;SDS011;15243;50.726;7.080;2023-05-10T03:33:59;4.63;;;3.53;;
27899;SDS011;15243;50.726;7.080;2023-05-10T03:36:26;4.82;;;3.33;;
27899;SDS011;15243;50.726;7.080;2023-05-10T03:38:53;5.13;;;3.55;;
27899;SDS011;15243;50.726;7.080;2023-05-10T03:41:20;7.13;;;3.15;;
27899;SDS011;15243;50.726;7.080;2023-05-10T03:43:47;6.35;;;3.80;;
27899;SDS011;15243;50.726;7.080;2023-05-10T03:46:14;6.72;;;4.03;;
27899;SDS011;15243;50.726;7.080;2023-05-10T03:48:41;8.20;;;4.30;;
27899;SDS011;15243;50.726;7.080;2023-05-10T03:51:08;11.00;;;5.43;;
27899;SDS011;15243;50.726;7.080;2023-05-10T03:53:35;10.18;;;5.78;;
27899;SDS011;15243;50.726;7.080;2023-05-10T03:56:03;13.50;;;7.05;;
27899;SDS011;15243;50.726;7.080;2023-05-10T03:58:30;13.18;;;8.45;;
27899;SDS011;15243;50.726;7.080;2023-05-10T04:00:57;15.50;;;7.95;;
27899;SDS011;15243;50.726;7.080;2023-05-10T04:03:24;15.63;;;8.45;;
27899;SDS011;15243;50.726;7.080;2023-05-10T04:05:59;16.52;;;9.52;;
27899;SDS011;15243;50.726;7.080;2023-05-10T04:08:27;19.35;;;10.90;;
27899;SDS011;15243;50.726;7.080;2023-05-10T04:11:04;24.23;;;12.52;;
27899;SDS011;15243;50.726;7.080;2023-05-10T04:13:35;20.23;;;11.43;;
27899;SDS011;15243;50.726;7.080;2023-05-10T04:16:02;23.33;;;12.10;;
27899;SDS011;15243;50.726;7.080;2023-05-10T04:18:29;23.02;;;12.38;;
27899;SDS011;15243;50.726;7.080;2023-05-10T04:20:57;20.23;;;12.25;;
27899;SDS011;15243;50.726;7.080;2023-05-10T04:23:23;22.50;;;11.95;;
27899;SDS011;15243;50.726;7.080;2023-05-10T04:25:50;20.83;;;11.88;;
27899;SDS011;15243;50.726;7.080;2023-05-10T04:28:17;20.25;;;13.20;;
27899;SDS011;15243;50.726;7.080;2023-05-10T04:30:44;25.58;;;13.68;;
27899;SDS011;15243;50.726;7.080;2023-05-10T04:33:12;22.60;;;13.52;;
27899;SDS011;15243;50.726;7.080;2023-05-10T04:35:39;21.67;;;13.65;;
27899;SDS011;15243;50.726;7.080;2023-05-10T04:38:06;24.13;;;14.20;;
27899;SDS011;15243;50.726;7.080;2023-05-10T04:40:33;28.38;;;14.98;;
27899;SDS011;15243;50.726;7.080;2023-05-10T04:43:00;26.70;;;14.82;;
27899;SDS011;15243;50.726;7.080;2023-05-10T04:45:27;25.35;;;14.77;;
27899;SDS011;15243;50.726;7.080;2023-05-10T04:47:54;21.70;;;14.23;;
27899;SDS011;15243;50.726;7.080;2023-05-10T04:50:21;23.90;;;14.95;;
27899;SDS011;15243;50.726;7.080;2023-05-10T04:52:48;26.25;;;15.23;;
27899;SDS011;15243;50.726;7.080;2023-05-10T04:55:15;26.90;;;16.23;;
27899;SDS011;15243;50.726;7.080;2023-05-10T04:57:42;25.02;;;15.15;;
27899;SDS011;15243;50.726;7.080;2023-05-10T05:00:09;23.10;;;15.23;;
27899;SDS011;15243;50.726;7.080;2023-05-10T05:02:36;28.23;;;16.27;;
27899;SDS011;15243;50.726;7.080;2023-05-10T05:05:04;28.67;;;17.08;;
27899;SDS011;15243;50.726;7.080;2023-05-10T05:07:31;26.45;;;15.98;;
27899;SDS011;15243;50.726;7.080;2023-05-10T05:09:58;24.65;;;15.38;;
27899;SDS011;15243;50.726;7.080;2023-05-10T05:12:25;26.98;;;15.57;;
27899;SDS011;15243;50.726;7.080;2023-05-10T05:14:52;26.52;;;15.32;;
27899;SDS011;15243;50.726;7.080;2023-05-10T05:17:19;24.42;;;15.50;;
27899;SDS011;15243;50.726;7.080;2023-05-10T05:19:46;24.45;;;14.98;;
27899;SDS011;15243;50.726;7.080;2023-05-10T05:22:13;25.25;;;15.32;;
27899;SDS011;15243;50.726;7.080;2023-05-10T05:24:40;22.15;;;14.00;;
27899;SDS011;15243;50.726;7.080;2023-05-10T05:27:07;23.33;;;13.77;;
27899;SDS011;15243;50.726;7.080;2023-05-10T05:29:34;22.30;;;14.10;;
27899;SDS011;15243;50.726;7.080;2023-05-10T05:32:01;19.10;;;12.27;;
27899;SDS011;15243;50.726;7.080;2023-05-10T05:34:28;21.48;;;13.35;;
27899;SDS011;15243;50.726;7.080;2023-05-10T05:36:55;19.42;;;12.88;;
27899;SDS011;15243;50.726;7.080;2023-05-10T05:39:22;18.08;;;12.30;;
27899;SDS011;15243;50.726;7.080;2023-05-10T05:41:49;22.23;;;12.65;;
27899;SDS011;15243;50.726;7.080;2023-05-10T05:44:16;23.60;;;12.80;;
27899;SDS011;15243;50.726;7.080;2023-05-10T05:46:43;16.20;;;10.90;;
27899;SDS011;15243;50.726;7.080;2023-05-10T05:49:10;20.70;;;11.57;;
27899;SDS011;15243;50.726;7.080;2023-05-10T05:51:38;16.73;;;11.23;;
27899;SDS011;15243;50.726;7.080;2023-05-10T05:54:05;15.77;;;10.93;;
27899;SDS011;15243;50.726;7.080;2023-05-10T05:56:32;15.65;;;10.75;;
27899;SDS011;15243;50.726;7.080;2023-05-10T05:58:59;16.17;;;10.30;;
27899;SDS011;15243;50.726;7.080;2023-05-10T06:01:26;18.02;;;10.60;;
27899;SDS011;15243;50.726;7.080;2023-05-10T06:03:53;30.50;;;12.90;;
27899;SDS011;15243;50.726;7.080;2023-05-10T06:06:21;23.27;;;11.02;;
27899;SDS011;15243;50.726;7.080;2023-05-10T06:08:48;12.77;;;8.68;;
27899;SDS011;15243;50.726;7.080;2023-05-10T06:11:15;14.60;;;9.60;;
27899;SDS011;15243;50.726;7.080;2023-05-10T06:13:42;18.58;;;9.45;;
27899;SDS011;15243;50.726;7.080;2023-05-10T06:16:09;20.15;;;11.00;;
27899;SDS011;15243;50.726;7.080;2023-05-10T06:18:36;19.65;;;11.00;;
27899;SDS011;15243;50.726;7.080;2023-05-10T06:21:03;18.40;;;8.90;;
27899;SDS011;15243;50.726;7.080;2023-05-10T06:23:31;15.68;;;8.45;;
27899;SDS011;15243;50.726;7.080;2023-05-10T06:25:58;9.82;;;7.55;;
27899;SDS011;15243;50.726;7.080;2023-05-10T06:28:24;14.43;;;8.25;;
27899;SDS011;15243;50.726;7.080;2023-05-10T06:30:51;13.48;;;8.23;;
27899;SDS011;15243;50.726;7.080;2023-05-10T06:33:18;13.30;;;7.93;;
27899;SDS011;15243;50.726;7.080;2023-05-10T06:35:45;11.52;;;7.30;;
27899;SDS011;15243;50.726;7.080;2023-05-10T06:38:12;9.27;;;7.10;;
27899;SDS011;15243;50.726;7.080;2023-05-10T06:40:42;12.35;;;6.63;;
27899;SDS011;15243;50.726;7.080;2023-05-10T06:43:10;11.20;;;7.10;;
27899;SDS011;15243;50.726;7.080;2023-05-10T06:45:37;13.30;;;7.88;;
27899;SDS011;15243;50.726;7.080;2023-05-10T06:48:04;12.20;;;8.27;;
27899;SDS011;15243;50.726;7.080;2023-05-10T06:50:31;8.88;;;6.00;;
27899;SDS011;15243;50.726;7.080;2023-05-10T06:52:58;10.98;;;5.75;;
27899;SDS011;15243;50.726;7.080;2023-05-10T06:55:26;9.02;;;5.93;;
27899;SDS011;15243;50.726;7.080;2023-05-10T06:57:54;10.43;;;7.18;;
27899;SDS011;15243;50.726;7.080;2023-05-10T07:00:21;11.13;;;6.10;;
27899;SDS011;15243;50.726;7.080;2023-05-10T07:02:48;11.27;;;5.80;;
27899;SDS011;15243;50.726;7.080;2023-05-10T07:05:15;12.60;;;6.47;;
27899;SDS011;15243;50.726;7.080;2023-05-10T07:07:43;11.10;;;6.40;;
27899;SDS011;15243;50.726;7.080;2023-05-10T07:10:09;12.82;;;6.68;;
27899;SDS011;15243;50.726;7.080;2023-05-10T07:12:36;8.40;;;5.95;;
27899;SDS011;15243;50.726;7.080;2023-05-10T07:15:04;11.30;;;6.20;;
27899;SDS011;15243;50.726;7.080;2023-05-10T07:17:31;10.07;;;5.75;;
27899;SDS011;15243;50.726;7.080;2023-05-10T07:20:00;10.82;;;5.47;;
27899;SDS011;15243;50.726;7.080;2023-05-10T07:22:27;69.93;;;13.75;;
27899;SDS011;15243;50.726;7.080;2023-05-10T07:24:54;12.20;;;6.35;;
27899;SDS011;15243;50.726;7.080;2023-05-10T07:27:21;35.22;;;9.18;;
27899;SDS011;15243;50.726;7.080;2023-05-10T07:29:48;13.43;;;6.30;;
27899;SDS011;15243;50.726;7.080;2023-05-10T07:32:15;10.98;;;6.18;;
27899;SDS011;15243;50.726;7.080;2023-05-10T07:34:42;7.90;;;5.70;;
27899;SDS011;15243;50.726;7.080;2023-05-10T07:37:09;9.57;;;6.30;;
27899;SDS011;15243;50.726;7.080;2023-05-10T07:39:36;14.95;;;6.65;;
27899;SDS011;15243;50.726;7.080;2023-05-10T07:42:03;8.82;;;6.05;;
27899;SDS011;15243;50.726;7.080;2023-05-10T07:44:31;7.68;;;5.85;;
27899;SDS011;15243;50.726;7.080;2023-05-10T07:46:58;10.27;;;5.90;;
27899;SDS011;15243;50.726;7.080;2023-05-10T07:49:25;8.18;;;5.75;;
27899;SDS011;15243;50.726;7.080;2023-05-10T07:51:52;8.52;;;5.50;;
27899;SDS011;15243;50.726;7.080;2023-05-10T07:54:19;8.25;;;4.65;;
27899;SDS011;15243;50.726;7.080;2023-05-10T07:56:46;9.95;;;5.00;;
27899;SDS011;15243;50.726;7.080;2023-05-10T07:59:17;7.13;;;4.50;;
27899;SDS011;15243;50.726;7.080;2023-05-10T08:01:44;10.40;;;4.53;;
27899;SDS011;15243;50.726;7.080;2023-05-10T08:04:11;7.85;;;4.50;;
27899;SDS011;15243;50.726;7.080;2023-05-10T08:06:39;6.30;;;4.30;;
27899;SDS011;15243;50.726;7.080;2023-05-10T08:09:06;8.43;;;4.65;;
27899;SDS011;15243;50.726;7.080;2023-05-10T08:11:34;6.97;;;4.28;;
27899;SDS011;15243;50.726;7.080;2023-05-10T08:14:01;6.72;;;4.05;;
27899;SDS011;15243;50.726;7.080;2023-05-10T08:16:28;10.43;;;4.82;;
27899;SDS011;15243;50.726;7.080;2023-05-10T08:18:55;5.35;;;3.30;;
27899;SDS011;15243;50.726;7.080;2023-05-10T08:21:22;7.20;;;4.03;;
27899;SDS011;15243;50.726;7.080;2023-05-10T08:23:50;9.00;;;3.42;;
27899;SDS011;15243;50.726;7.080;2023-05-10T08:26:17;5.40;;;3.40;;
27899;SDS011;15243;50.726;7.080;2023-05-10T08:28:44;6.75;;;2.70;;
27899;SDS011;15243;50.726;7.080;2023-05-10T08:31:11;4.30;;;2.70;;
27899;SDS011;15243;50.726;7.080;2023-05-10T08:33:38;4.07;;;2.65;;
27899;SDS011;15243;50.726;7.080;2023-05-10T08:36:09;5.60;;;2.85;;
27899;SDS011;15243;50.726;7.080;2023-05-10T08:38:37;4.63;;;2.50;;
27899;SDS011;15243;50.726;7.080;2023-05-10T08:41:04;6.35;;;3.05;;
27899;SDS011;15243;50.726;7.080;2023-05-10T08:43:33;7.97;;;2.78;;
27899;SDS011;15243;50.726;7.080;2023-05-10T08:46:02;4.68;;;2.97;;
27899;SDS011;15243;50.726;7.080;2023-05-10T08:48:33;5.93;;;2.63;;
27899;SDS011;15243;50.726;7.080;2023-05-10T08:51:00;4.72;;;2.65;;
27899;SDS011;15243;50.726;7.080;2023-05-10T08:53:30;6.10;;;2.63;;
27899;SDS011;15243;50.726;7.080;2023-05-10T08:56:00;6.22;;;2.70;;
27899;SDS011;15243;50.726;7.080;2023-05-10T08:58:29;5.28;;;2.42;;
27899;SDS011;15243;50.726;7.080;2023-05-10T09:00:57;6.47;;;3.45;;
27899;SDS011;15243;50.726;7.080;2023-05-10T09:03:25;10.13;;;3.70;;
27899;SDS011;15243;50.726;7.080;2023-05-10T09:05:52;2.83;;;2.10;;
27899;SDS011;15243;50.726;7.080;2023-05-10T09:08:20;5.13;;;2.30;;
27899;SDS011;15243;50.726;7.080;2023-05-10T09:10:48;5.68;;;1.73;;
27899;SDS011;15243;50.726;7.080;2023-05-10T09:13:16;3.40;;;1.77;;
27899;SDS011;15243;50.726;7.080;2023-05-10T09:15:45;2.85;;;1.70;;
27899;SDS011;15243;50.726;7.080;2023-05-10T09:18:12;1.05;;;0.95;;
27899;SDS011;15243;50.726;7.080;2023-05-10T09:20:39;2.08;;;1.25;;
27899;SDS011;15243;50.726;7.080;2023-05-10T09:23:06;2.53;;;1.20;;
27899;SDS011;15243;50.726;7.080;2023-05-10T09:25:34;2.65;;;1.40;;
27899;SDS011;15243;50.726;7.080;2023-05-10T09:28:01;3.22;;;1.40;;
27899;SDS011;15243;50.726;7.080;2023-05-10T09:30:29;4.13;;;1.27;;
27899;SDS011;15243;50.726;7.080;2023-05-10T09:32:58;2.53;;;1.30;;
27899;SDS011;15243;50.726;7.080;2023-05-10T09:35:28;2.72;;;1.15;;
27899;SDS011;15243;50.726;7.080;2023-05-10T09:37:57;3.15;;;1.40;;
27899;SDS011;15243;50.726;7.080;2023-05-10T09:40:27;2.03;;;1.45;;
27899;SDS011;15243;50.726;7.080;2023-05-10T09:45:35;2.28;;;1.23;;
27899;SDS011;15243;50.726;7.080;2023-05-10T09:48:04;2.15;;;0.85;;
27899;SDS011;15243;50.726;7.080;2023-05-10T09:50:32;2.92;;;1.25;;
27899;SDS011;15243;50.726;7.080;2023-05-10T09:53:01;3.42;;;1.30;;
27899;SDS011;15243;50.726;7.080;2023-05-10T09:58:06;5.70;;;1.10;;
27899;SDS011;15243;50.726;7.080;2023-05-10T10:00:38;1.20;;;1.10;;
27899;SDS011;15243;50.726;7.080;2023-05-10T10:03:07;3.40;;;1.10;;
27899;SDS011;15243;50.726;7.080;2023-05-10T10:05:42;1.33;;;1.23;;
27899;SDS011;15243;50.726;7.080;2023-05-10T10:08:10;1.98;;;1.30;;
27899;SDS011;15243;50.726;7.080;2023-05-10T10:10:38;1.98;;;1.25;;
27899;SDS011;15243;50.726;7.080;2023-05-10T10:13:18;2.75;;;1.65;;
27899;SDS011;15243;50.726;7.080;2023-05-10T10:15:46;2.95;;;2.28;;
27899;SDS011;15243;50.726;7.080;2023-05-10T10:18:17;3.35;;;2.42;;
27899;SDS011;15243;50.726;7.080;2023-05-10T10:20:45;5.32;;;3.25;;
27899;SDS011;15243;50.726;7.080;2023-05-10T10:23:12;8.25;;;4.22;;
27899;SDS011;15243;50.726;7.080;2023-05-10T10:25:42;8.57;;;4.53;;
27899;SDS011;15243;50.726;7.080;2023-05-10T10:28:15;9.40;;;4.90;;
27899;SDS011;15243;50.726;7.080;2023-05-10T10:31:17;7.80;;;4.45;;
27899;SDS011;15243;50.726;7.080;2023-05-10T10:33:56;11.07;;;4.80;;
27899;SDS011;15243;50.726;7.080;2023-05-10T10:36:54;7.60;;;4.60;;
27899;SDS011;15243;50.726;7.080;2023-05-10T10:39:20;6.75;;;4.10;;
27899;SDS011;15243;50.726;7.080;2023-05-10T10:41:50;8.00;;;3.90;;
27899;SDS011;15243;50.726;7.080;2023-05-10T10:57:42;3.00;;;1.67;;
27899;SDS011;15243;50.726;7.080;2023-05-10T11:00:26;4.05;;;1.00;;
27899;SDS011;15243;50.726;7.080;2023-05-10T11:13:27;0.60;;;0.60;;
27899;SDS011;15243;50.726;7.080;2023-05-10T11:15:59;1.90;;;0.60;;
27899;SDS011;15243;50.726;7.080;2023-05-10T11:21:29;0.60;;;0.60;;
27899;SDS011;15243;50.726;7.080;2023-05-10T11:23:57;0.60;;;0.60;;
27899;SDS011;15243;50.726;7.080;2023-05-10T11:26:29;0.40;;;0.40;;
27899;SDS011;15243;50.726;7.080;2023-05-10T11:28:58;0.70;;;0.70;;
27899;SDS011;15243;50.726;7.080;2023-05-10T11:31:27;1.58;;;0.70;;
27899;SDS011;15243;50.726;7.080;2023-05-10T11:33:56;1.02;;;0.77;;
27899;SDS011;15243;50.726;7.080;2023-05-10T11:36:25;1.58;;;0.90;;
27899;SDS011;15243;50.726;7.080;2023-05-10T11:38:54;1.67;;;0.60;;
27899;SDS011;15243;50.726;7.080;2023-05-10T11:41:22;0.93;;;0.80;;
27899;SDS011;15243;50.726;7.080;2023-05-10T11:43:51;1.13;;;0.77;;
27899;SDS011;15243;50.726;7.080;2023-05-10T11:46:20;1.80;;;1.20;;
27899;SDS011;15243;50.726;7.080;2023-05-10T11:48:49;0.80;;;0.80;;
27899;SDS011;15243;50.726;7.080;2023-05-10T11:51:20;0.82;;;0.80;;
27899;SDS011;15243;50.726;7.080;2023-05-10T11:53:49;2.67;;;0.80;;
27899;SDS011;15243;50.726;7.080;2023-05-10T11:56:17;7.60;;;1.10;;
27899;SDS011;15243;50.726;7.080;2023-05-10T11:58:44;0.93;;;0.65;;
27899;SDS011;15243;50.726;7.080;2023-05-10T12:01:13;1.17;;;0.52;;
27899;SDS011;15243;50.726;7.080;2023-05-10T12:03:40;12.93;;;2.28;;
27899;SDS011;15243;50.726;7.080;2023-05-10T12:06:07;1.17;;;0.77;;
27899;SDS011;15243;50.726;7.080;2023-05-10T12:08:34;0.80;;;0.80;;
27899;SDS011;15243;50.726;7.080;2023-05-10T12:11:08;1.58;;;1.08;;
27899;SDS011;15243;50.726;7.080;2023-05-10T12:13:39;1.52;;;1.30;;
27899;SDS011;15243;50.726;7.080;2023-05-10T12:16:40;3.10;;;1.77;;
27899;SDS011;15243;50.726;7.080;2023-05-10T12:21:30;4.45;;;1.80;;
27899;SDS011;15243;50.726;7.080;2023-05-10T12:24:04;1.60;;;1.48;;
27899;SDS011;15243;50.726;7.080;2023-05-10T12:26:34;1.55;;;1.00;;
27899;SDS011;15243;50.726;7.080;2023-05-10T12:29:17;0.80;;;0.80;;
27899;SDS011;15243;50.726;7.080;2023-05-10T12:31:48;1.23;;;0.85;;
27899;SDS011;15243;50.726;7.080;2023-05-10T12:36:57;1.00;;;0.75;;
27899;SDS011;15243;50.726;7.080;2023-05-10T12:39:24;0.75;;;0.70;;
27899;SDS011;15243;50.726;7.080;2023-05-10T12:41:52;1.42;;;1.00;;
27899;SDS011;15243;50.726;7.080;2023-05-10T12:44:19;1.77;;;1.10;;
27899;SDS011;15243;50.726;7.080;2023-05-10T12:46:46;114.35;;;31.75;;
27899;SDS011;15243;50.726;7.080;2023-05-10T12:49:12;27.60;;;8.65;;
27899;SDS011;15243;50.726;7.080;2023-05-10T12:51:39;2.72;;;1.42;;
27899;SDS011;15243;50.726;7.080;2023-05-10T12:54:06;1.77;;;1.42;;
27899;SDS011;15243;50.726;7.080;2023-05-10T12:56:33;9.02;;;2.90;;
27899;SDS011;15243;50.726;7.080;2023-05-10T12:59:00;0.95;;;0.75;;
27899;SDS011;15243;50.726;7.080;2023-05-10T13:01:27;2.50;;;0.90;;
27899;SDS011;15243;50.726;7.080;2023-05-10T13:03:54;0.98;;;0.82;;
27899;SDS011;15243;50.726;7.080;2023-05-10T13:06:21;1.95;;;0.80;;
27899;SDS011;15243;50.726;7.080;2023-05-10T13:08:48;2.65;;;1.02;;
27899;SDS011;15243;50.726;7.080;2023-05-10T13:11:15;1.02;;;0.70;;
27899;SDS011;15243;50.726;7.080;2023-05-10T13:13:43;4.35;;;1.10;;
27899;SDS011;15243;50.726;7.080;2023-05-10T13:16:10;0.68;;;0.60;;
27899;SDS011;15243;50.726;7.080;2023-05-10T13:18:38;0.70;;;0.50;;
27899;SDS011;15243;50.726;7.080;2023-05-10T13:21:04;0.52;;;0.52;;
27899;SDS011;15243;50.726;7.080;2023-05-10T13:23:31;1.33;;;0.60;;
27899;SDS011;15243;50.726;7.080;2023-05-10T13:25:58;0.60;;;0.60;;
27899;SDS011;15243;50.726;7.080;2023-05-10T13:28:25;0.40;;;0.40;;
27899;SDS011;15243;50.726;7.080;2023-05-10T13:30:52;0.82;;;0.52;;
27899;SDS011;15243;50.726;7.080;2023-05-10T13:33:19;1.55;;;0.50;;
27899;SDS011;15243;50.726;7.080;2023-05-10T13:35:46;0.50;;;0.50;;
27899;SDS011;15243;50.726;7.080;2023-05-10T13:38:14;0.75;;;0.43;;
27899;SDS011;15243;50.726;7.080;2023-05-10T13:40:40;1.20;;;0.60;;
27899;SDS011;15243;50.726;7.080;2023-05-10T13:43:07;0.80;;;0.60;;
27899;SDS011;15243;50.726;7.080;2023-05-10T13:45:34;1.67;;;0.75;;
27899;SDS011;15243;50.726;7.080;2023-05-10T13:48:01;0.93;;;0.70;;
27899;SDS011;15243;50.726;7.080;2023-05-10T13:50:29;1.15;;;0.90;;
27899;SDS011;15243;50.726;7.080;2023-05-10T13:52:56;2.67;;;1.10;;
27899;SDS011;15243;50.726;7.080;2023-05-10T13:55:23;1.77;;;1.10;;
27899;SDS011;15243;50.726;7.080;2023-05-10T13:57:50;1.00;;;1.00;;
27899;SDS011;15243;50.726;7.080;2023-05-10T14:00:17;1.42;;;0.93;;
27899;SDS011;15243;50.726;7.080;2023-05-10T14:02:44;3.20;;;0.90;;
27899;SDS011;15243;50.726;7.080;2023-05-10T14:05:11;2.05;;;1.13;;
27899;SDS011;15243;50.726;7.080;2023-05-10T14:07:39;2.83;;;1.35;;
27899;SDS011;15243;50.726;7.080;2023-05-10T14:10:06;1.30;;;1.20;;
27899;SDS011;15243;50.726;7.080;2023-05-10T14:12:33;4.10;;;1.27;;
27899;SDS011;15243;50.726;7.080;2023-05-10T14:15:00;1.67;;;1.30;;
27899;SDS011;15243;50.726;7.080;2023-05-10T14:17:28;3.83;;;1.10;;
27899;SDS011;15243;50.726;7.080;2023-05-10T14:19:55;1.95;;;1.17;;
27899;SDS011;15243;50.726;7.080;2023-05-10T14:22:22;3.28;;;1.40;;
27899;SDS011;15243;50.726;7.080;2023-05-10T14:24:49;3.25;;;1.70;;
27899;SDS011;15243;50.726;7.080;2023-05-10T14:27:16;1.20;;;1.10;;
27899;SDS011;15243;50.726;7.080;2023-05-10T14:29:43;2.58;;;1.50;;
27899;SDS011;15243;50.726;7.080;2023-05-10T14:32:10;2.47;;;1.73;;
27899;SDS011;15243;50.726;7.080;2023-05-10T14:34:37;2.88;;;1.90;;
27899;SDS011;15243;50.726;7.080;2023-05-10T14:37:04;3.08;;;1.67;;
27899;SDS011;15243;50.726;7.080;2023-05-10T14:39:32;4.28;;;2.17;;
27899;SDS011;15243;50.726;7.080;2023-05-10T14:41:59;4.25;;;2.10;;
27899;SDS011;15243;50.726;7.080;2023-05-10T14:44:26;7.10;;;2.33;;
27899;SDS011;15243;50.726;7.080;2023-05-10T14:46:53;5.35;;;2.15;;
27899;SDS011;15243;50.726;7.080;2023-05-10T14:49:19;9.95;;;2.30;;
27899;SDS011;15243;50.726;7.080;2023-05-10T14:51:49;9.02;;;2.90;;
27899;SDS011;15243;50.726;7.080;2023-05-10T14:54:16;6.57;;;2.50;;
27899;SDS011;15243;50.726;7.080;2023-05-10T14:56:45;4.28;;;2.00;;
27899;SDS011;15243;50.726;7.080;2023-05-10T14:59:13;6.35;;;1.80;;
27899;SDS011;15243;50.726;7.080;2023-05-10T15:01:40;4.60;;;1.80;;
27899;SDS011;15243;50.726;7.080;2023-05-10T15:04:09;4.40;;;1.58;;
27899;SDS011;15243;50.726;7.080;2023-05-10T15:06:36;3.67;;;1.50;;
27899;SDS011;15243;50.726;7.080;2023-05-10T15:09:03;3.15;;;1.60;;
27899;SDS011;15243;50.726;7.080;2023-05-10T15:11:30;2.83;;;1.70;;
27899;SDS011;15243;50.726;7.080;2023-05-10T15:13:57;6.85;;;2.35;;
27899;SDS011;15243;50.726;7.080;2023-05-10T15:16:24;3.13;;;1.73;;
27899;SDS011;15243;50.726;7.080;2023-05-10T15:18:51;3.67;;;1.70;;
27899;SDS011;15243;50.726;7.080;2023-05-10T15:21:18;10.80;;;2.38;;
27899;SDS011;15243;50.726;7.080;2023-05-10T15:23:45;4.15;;;1.98;;
27899;SDS011;15243;50.726;7.080;2023-05-10T15:26:12;4.63;;;2.28;;
27899;SDS011;15243;50.726;7.080;2023-05-10T15:28:39;3.00;;;2.38;;
27899;SDS011;15243;50.726;7.080;2023-05-10T15:31:06;4.15;;;1.80;;
27899;SDS011;15243;50.726;7.080;2023-05-10T15:33:33;4.20;;;2.20;;
27899;SDS011;15243;50.726;7.080;2023-05-10T15:36:00;4.43;;;2.70;;
27899;SDS011;15243;50.726;7.080;2023-05-10T15:38:27;5.22;;;2.50;;
27899;SDS011;15243;50.726;7.080;2023-05-10T15:40:55;5.45;;;2.35;;
27899;SDS011;15243;50.726;7.080;2023-05-10T15:43:24;5.53;;;2.72;;
27899;SDS011;15243;50.726;7.080;2023-05-10T15:45:51;7.72;;;2.70;;
27899;SDS011;15243;50.726;7.080;2023-05-10T15:48:17;5.80;;;3.08;;
27899;SDS011;15243;50.726;7.080;2023-05-10T15:50:44;6.68;;;2.75;;
27899;SDS011;15243;50.726;7.080;2023-05-10T15:53:11;9.98;;;2.80;;
27899;SDS011;15243;50.726;7.080;2023-05-10T15:55:38;3.80;;;3.00;;